Time;durP1;ratioP1;P1;durP2;ratioP2;P2;SDS_P1;SDS_P2;PMS_P1;PMS_P2;Temp;Humidity;BMP_temperature;BMP_pressure;BME280_temperature;BME280_humidity;BME280_pressure;Samples;Min_cycle;Max_cycle;Signal;HPM_P1;HPM_P2
2022/01/31 00:00:02;;;;;;;24.23;5.40;;;4.80;92.00;;;;;;5156848;27;37798;-58
2022/01/31 00:02:30;;;;;;;21.15;7.00;;;4.80;92.00;;;;;;5157572;27;42168;-57
2022/01/31 00:04:57;;;;;;;24.67;5.90;;;4.70;92.30;;;;;;5158141;27;37531;-58
2022/01/31 00:07:24;;;;;;;20.10;5.70;;;4.60;92.30;;;;;;5158072;27;35314;-57
2022/01/31 00:09:51;;;;;;;16.45;4.82;;;4.70;92.40;;;;;;5157873;27;39156;-57
2022/01/31 00:12:23;;;;;;;21.25;5.47;;;4.70;92.50;;;;;;5157833;27;37662;-57
2022/01/31 00:14:51;;;;;;;26.52;5.18;;;4.70;92.70;;;;;;5156913;27;38583;-57
2022/01/31 00:17:19;;;;;;;17.40;5.18;;;4.80;92.60;;;;;;5157315;27;35316;-57
2022/01/31 00:19:46;;;;;;;17.65;4.93;;;4.80;92.50;;;;;;5156907;27;37149;-57
2022/01/31 00:22:14;;;;;;;21.33;5.18;;;4.80;92.50;;;;;;5156472;27;39095;-58
2022/01/31 00:24:42;;;;;;;20.88;5.75;;;4.80;92.60;;;;;;5159313;27;37930;-57
2022/01/31 00:27:10;;;;;;;19.25;4.90;;;4.80;92.70;;;;;;5160685;27;35371;-58
2022/01/31 00:29:38;;;;;;;27.40;5.15;;;4.80;92.50;;;;;;5160505;27;37048;-58
2022/01/31 00:32:07;;;;;;;22.23;4.30;;;4.80;92.60;;;;;;5160994;27;38624;-57
2022/01/31 00:34:34;;;;;;;21.35;5.45;;;4.90;92.50;;;;;;5161662;27;37484;-58
2022/01/31 00:37:01;;;;;;;21.05;4.65;;;4.90;92.60;;;;;;5161953;27;36991;-57
2022/01/31 00:39:33;;;;;;;18.52;4.63;;;4.90;92.80;;;;;;5160821;27;36383;-57
2022/01/31 00:42:02;;;;;;;19.92;4.38;;;4.90;92.50;;;;;;5160247;27;37673;-57
2022/01/31 00:44:39;;;;;;;18.13;4.20;;;4.90;92.70;;;;;;5158902;27;37254;-57
2022/01/31 00:47:17;;;;;;;19.55;5.05;;;4.90;93.00;;;;;;5159492;27;35431;-61
2022/01/31 00:49:50;;;;;;;21.73;5.45;;;4.90;92.60;;;;;;5157851;27;37140;-57
2022/01/31 00:52:17;;;;;;;17.40;5.27;;;5.00;92.60;;;;;;5159023;27;38655;-58
2022/01/31 00:54:45;;;;;;;22.60;5.10;;;5.00;92.90;;;;;;5159049;27;38149;-57
2022/01/31 00:57:13;;;;;;;23.52;5.40;;;5.00;93.10;;;;;;5161341;27;36625;-57
2022/01/31 00:59:40;;;;;;;19.45;5.60;;;5.10;93.70;;;;;;5160366;27;39546;-57
2022/01/31 01:02:09;;;;;;;21.55;5.85;;;5.00;93.80;;;;;;5159666;27;38533;-57
2022/01/31 01:04:36;;;;;;;16.42;5.75;;;4.90;94.10;;;;;;5160363;27;37880;-57
2022/01/31 01:07:04;;;;;;;28.90;6.22;;;4.90;94.10;;;;;;5159932;27;37493;-58
2022/01/31 01:09:31;;;;;;;19.95;5.85;;;4.80;94.30;;;;;;5159953;27;36979;-57
2022/01/31 01:11:59;;;;;;;21.23;7.07;;;4.80;94.60;;;;;;5158627;27;39341;-58
2022/01/31 01:14:26;;;;;;;20.52;6.40;;;4.80;94.80;;;;;;5160380;27;36493;-58
2022/01/31 01:16:53;;;;;;;20.50;6.45;;;4.70;95.10;;;;;;5160575;27;38773;-57
2022/01/31 01:19:22;;;;;;;20.55;6.47;;;4.70;95.60;;;;;;5159991;27;37411;-57
2022/01/31 01:21:49;;;;;;;20.23;7.18;;;4.70;95.90;;;;;;5159508;27;37808;-57
2022/01/31 01:24:17;;;;;;;24.55;7.32;;;4.70;96.30;;;;;;5160548;27;37999;-57
2022/01/31 01:26:46;;;;;;;25.88;7.38;;;4.60;96.70;;;;;;5158378;27;37414;-58
2022/01/31 01:29:13;;;;;;;33.40;8.23;;;4.60;96.60;;;;;;5160042;27;37739;-57
2022/01/31 01:31:41;;;;;;;24.83;9.30;;;4.60;96.90;;;;;;5159923;27;37802;-58
2022/01/31 01:34:08;;;;;;;19.02;7.65;;;4.60;96.90;;;;;;5159539;27;38404;-58
2022/01/31 01:36:38;;;;;;;24.60;9.73;;;4.60;97.20;;;;;;5159282;27;36065;-57
2022/01/31 01:39:06;;;;;;;22.25;9.27;;;4.60;97.70;;;;;;5159589;27;38247;-57
2022/01/31 01:41:33;;;;;;;25.83;10.93;;;4.60;97.90;;;;;;5158953;27;39603;-58
2022/01/31 01:44:01;;;;;;;21.02;8.88;;;4.50;98.00;;;;;;5159756;27;37462;-57
2022/01/31 01:46:28;;;;;;;22.20;10.18;;;4.50;98.10;;;;;;5159737;27;36653;-57
2022/01/31 01:48:55;;;;;;;22.52;9.73;;;4.50;98.40;;;;;;5159016;27;37122;-57
2022/01/31 01:51:23;;;;;;;19.92;9.10;;;4.40;98.30;;;;;;5159187;27;38800;-58
2022/01/31 01:53:51;;;;;;;23.30;10.63;;;4.40;98.40;;;;;;5156960;27;36169;-57
2022/01/31 01:56:19;;;;;;;18.98;9.85;;;4.40;98.60;;;;;;5157160;27;37241;-58
2022/01/31 01:58:48;;;;;;;17.13;8.77;;;4.40;98.50;;;;;;5156837;27;37781;-58
2022/01/31 02:01:16;;;;;;;22.13;9.60;;;4.40;98.40;;;;;;5156200;27;36774;-57
2022/01/31 02:03:43;;;;;;;20.27;8.80;;;4.30;98.70;;;;;;5159662;27;37931;-58
2022/01/31 02:06:10;;;;;;;16.95;9.05;;;4.30;98.70;;;;;;5159002;27;38164;-57
2022/01/31 02:08:43;;;;;;;18.48;9.35;;;4.20;98.40;;;;;;5158850;27;36261;-57
2022/01/31 02:11:13;;;;;;;18.17;9.30;;;4.20;98.60;;;;;;5158452;27;37939;-57
2022/01/31 02:13:40;;;;;;;18.67;9.65;;;4.20;98.80;;;;;;5159076;27;37073;-56
2022/01/31 02:16:09;;;;;;;18.35;8.52;;;4.20;99.00;;;;;;5157541;27;36411;-57
2022/01/31 02:18:44;;;;;;;16.13;8.07;;;4.20;99.20;;;;;;5158819;27;38060;-58
2022/01/31 02:21:13;;;;;;;14.32;6.90;;;4.10;99.00;;;;;;5160142;27;37360;-57
2022/01/31 02:23:41;;;;;;;12.73;6.50;;;4.10;98.80;;;;;;5158740;27;38536;-57
2022/01/31 02:26:08;;;;;;;12.00;6.95;;;4.00;98.80;;;;;;5157281;27;35426;-57
2022/01/31 02:28:39;;;;;;;12.50;6.60;;;4.00;98.90;;;;;;5158402;27;38987;-57
2022/01/31 02:31:08;;;;;;;13.68;7.07;;;3.90;99.00;;;;;;5158624;27;39720;-57
2022/01/31 02:33:35;;;;;;;14.13;7.60;;;3.90;99.20;;;;;;5156343;27;37246;-57
2022/01/31 02:36:05;;;;;;;17.30;7.40;;;3.90;99.40;;;;;;5158142;27;36010;-57
2022/01/31 02:38:34;;;;;;;13.80;8.27;;;3.90;99.60;;;;;;5157856;27;37580;-57
2022/01/31 02:41:01;;;;;;;13.55;8.02;;;3.90;99.90;;;;;;5157562;27;39052;-57
2022/01/31 02:43:31;;;;;;;15.48;7.80;;;3.90;99.90;;;;;;5158505;27;38794;-59
2022/01/31 02:45:58;;;;;;;18.33;9.57;;;4.00;99.90;;;;;;5156088;27;36705;-57
2022/01/31 02:48:28;;;;;;;14.48;9.20;;;4.00;99.90;;;;;;5158900;27;36107;-57
2022/01/31 02:50:56;;;;;;;18.25;9.75;;;4.00;99.90;;;;;;5157624;27;37923;-57
2022/01/31 02:53:25;;;;;;;14.25;9.10;;;4.00;99.90;;;;;;5157870;27;37512;-57
2022/01/31 02:55:56;;;;;;;16.90;8.23;;;4.00;99.90;;;;;;5158607;27;36050;-57
2022/01/31 02:58:25;;;;;;;13.95;8.80;;;4.10;99.90;;;;;;5158089;27;37554;-57
2022/01/31 03:00:54;;;;;;;18.30;10.48;;;4.10;99.90;;;;;;5157616;27;38259;-57
2022/01/31 03:03:21;;;;;;;20.20;9.82;;;4.20;99.90;;;;;;5157411;27;38927;-57
2022/01/31 03:05:49;;;;;;;15.45;8.00;;;4.30;99.90;;;;;;5157125;27;36578;-57
2022/01/31 03:08:16;;;;;;;13.95;6.95;;;4.30;99.90;;;;;;5157013;27;37125;-57
2022/01/31 03:10:44;;;;;;;12.43;7.22;;;4.30;99.90;;;;;;5156899;27;37578;-57
2022/01/31 03:13:13;;;;;;;14.52;6.60;;;4.40;99.90;;;;;;5157217;27;36189;-57
2022/01/31 03:15:40;;;;;;;14.55;6.72;;;4.50;99.90;;;;;;5157737;27;36658;-57
2022/01/31 03:18:08;;;;;;;17.70;7.38;;;4.60;99.90;;;;;;5158048;27;38159;-57
2022/01/31 03:20:35;;;;;;;13.90;6.75;;;4.60;99.90;;;;;;5157590;27;39426;-57
2022/01/31 03:23:03;;;;;;;14.05;6.28;;;4.60;99.90;;;;;;5158038;27;37145;-57
2022/01/31 03:25:31;;;;;;;11.75;6.38;;;4.70;99.90;;;;;;5159220;27;35348;-57
2022/01/31 03:27:58;;;;;;;15.52;5.28;;;4.80;99.90;;;;;;5157135;27;36363;-57
2022/01/31 03:30:27;;;;;;;18.08;5.00;;;4.80;99.90;;;;;;5156923;27;37451;-57
2022/01/31 03:32:54;;;;;;;13.13;4.43;;;4.90;99.90;;;;;;5157286;27;37969;-57
2022/01/31 03:35:22;;;;;;;16.50;4.05;;;5.00;99.90;;;;;;5157100;27;37378;-57
2022/01/31 03:37:49;;;;;;;15.00;4.00;;;5.10;99.90;;;;;;5157085;27;36451;-57
2022/01/31 03:40:17;;;;;;;21.83;3.80;;;5.20;99.90;;;;;;5155890;27;38452;-57
2022/01/31 03:42:44;;;;;;;22.90;4.00;;;5.30;99.90;;;;;;5156924;27;37472;-57
2022/01/31 03:45:12;;;;;;;24.40;4.40;;;5.40;99.90;;;;;;5158249;27;35884;-57
2022/01/31 03:47:44;;;;;;;22.17;4.50;;;5.50;99.90;;;;;;5157825;27;38606;-58
2022/01/31 03:50:13;;;;;;;24.63;4.70;;;5.60;99.90;;;;;;5157266;27;36397;-57
2022/01/31 03:52:42;;;;;;;27.98;4.53;;;5.70;99.90;;;;;;5157554;27;37282;-57
2022/01/31 03:55:12;;;;;;;24.50;4.82;;;5.70;99.90;;;;;;5156288;27;36396;-57
2022/01/31 03:57:39;;;;;;;28.15;4.20;;;5.80;99.90;;;;;;5156578;27;37488;-58
2022/01/31 04:00:10;;;;;;;19.83;3.55;;;5.90;99.90;;;;;;5155496;27;37920;-57
2022/01/31 04:02:38;;;;;;;23.23;3.40;;;6.00;99.90;;;;;;5157217;27;36284;-57
2022/01/31 04:05:08;;;;;;;24.40;4.03;;;6.00;99.90;;;;;;5157163;27;36325;-57
2022/01/31 04:07:36;;;;;;;27.45;3.63;;;6.00;99.90;;;;;;5157152;27;38988;-58
2022/01/31 04:10:05;;;;;;;17.00;2.80;;;6.10;99.90;;;;;;5157373;27;37877;-58
2022/01/31 04:12:32;;;;;;;18.48;2.63;;;6.00;99.90;;;;;;5157175;27;37387;-57
2022/01/31 04:15:00;;;;;;;18.13;3.42;;;6.10;99.90;;;;;;5156037;27;37198;-58
2022/01/31 04:17:27;;;;;;;17.40;3.20;;;6.00;99.90;;;;;;5156667;27;38052;-58
2022/01/31 04:19:54;;;;;;;15.88;2.55;;;6.00;99.90;;;;;;5157185;27;37810;-58
2022/01/31 04:22:26;;;;;;;18.08;2.85;;;6.00;99.90;;;;;;5157231;27;36196;-58
2022/01/31 04:24:59;;;;;;;13.48;2.97;;;5.90;99.70;;;;;;5156059;27;36791;-57
2022/01/31 04:27:31;;;;;;;13.02;2.00;;;5.90;99.90;;;;;;5156594;27;37720;-58
2022/01/31 04:29:59;;;;;;;15.05;3.15;;;5.90;99.80;;;;;;5155788;27;36351;-58
2022/01/31 04:32:26;;;;;;;16.92;2.67;;;5.80;99.80;;;;;;5155778;27;37797;-57
2022/01/31 04:34:53;;;;;;;14.85;2.55;;;5.80;99.60;;;;;;5155121;27;36753;-58
2022/01/31 04:37:21;;;;;;;20.40;2.72;;;5.80;99.70;;;;;;5157407;27;38708;-58
2022/01/31 04:39:49;;;;;;;22.30;3.60;;;5.80;99.60;;;;;;5156832;27;37403;-58
2022/01/31 04:42:17;;;;;;;20.67;4.18;;;5.80;99.60;;;;;;5155786;27;37437;-57
2022/01/31 04:44:44;;;;;;;18.08;2.30;;;5.50;99.40;;;;;;5156581;27;36610;-58
2022/01/31 04:47:11;;;;;;;23.67;3.17;;;5.70;99.40;;;;;;5155604;27;38302;-58
2022/01/31 04:49:39;;;;;;;21.17;3.25;;;5.70;99.40;;;;;;5156906;27;38468;-58
2022/01/31 04:52:07;;;;;;;26.50;5.45;;;5.60;99.40;;;;;;5156344;27;36866;-58
2022/01/31 04:54:34;;;;;;;23.45;4.25;;;5.60;99.40;;;;;;5155226;27;37444;-57
2022/01/31 04:57:03;;;;;;;22.13;3.13;;;5.60;99.40;;;;;;5156956;27;37436;-58
2022/01/31 04:59:32;;;;;;;15.77;2.83;;;5.60;99.50;;;;;;5157127;27;37869;-58
2022/01/31 05:02:00;;;;;;;18.88;3.25;;;5.60;99.50;;;;;;5154910;27;37456;-58
2022/01/31 05:04:27;;;;;;;26.33;3.03;;;5.70;99.40;;;;;;5155276;27;36963;-58
2022/01/31 05:06:54;;;;;;;20.10;3.10;;;5.70;99.50;;;;;;5153945;27;36262;-58
2022/01/31 05:09:22;;;;;;;15.18;2.80;;;5.70;99.70;;;;;;5154954;27;38824;-58
2022/01/31 05:11:49;;;;;;;14.98;2.22;;;5.70;99.50;;;;;;5158575;27;37338;-58
2022/01/31 05:14:18;;;;;;;14.65;2.90;;;5.70;99.50;;;;;;5160525;27;36094;-58
2022/01/31 05:16:45;;;;;;;11.93;1.95;;;5.70;99.50;;;;;;5159867;27;37558;-58
2022/01/31 05:19:12;;;;;;;9.98;1.70;;;5.70;99.40;;;;;;5160573;27;37763;-58
2022/01/31 05:21:40;;;;;;;10.85;2.75;;;5.60;99.40;;;;;;5159616;27;37377;-57
2022/01/31 05:24:08;;;;;;;8.90;2.17;;;5.60;99.30;;;;;;5159526;27;34708;-58
2022/01/31 05:26:35;;;;;;;10.88;1.40;;;5.60;99.30;;;;;;5159686;27;37333;-58
2022/01/31 05:29:03;;;;;;;12.82;2.20;;;5.60;99.40;;;;;;5159691;27;37687;-57
2022/01/31 05:31:32;;;;;;;13.45;1.60;;;5.60;99.20;;;;;;5159125;27;36286;-58
2022/01/31 05:33:59;;;;;;;9.60;1.70;;;5.60;99.20;;;;;;5158413;27;37278;-58
2022/01/31 05:36:27;;;;;;;8.05;1.58;;;5.60;99.20;;;;;;5158899;27;37035;-57
2022/01/31 05:38:54;;;;;;;11.35;1.63;;;5.60;99.10;;;;;;5159575;27;37790;-58
2022/01/31 05:41:21;;;;;;;10.07;1.77;;;5.60;99.20;;;;;;5159955;27;37944;-58
2022/01/31 05:43:49;;;;;;;13.10;1.73;;;5.50;99.20;;;;;;5159428;27;36584;-57
2022/01/31 05:46:17;;;;;;;8.30;1.52;;;5.50;99.30;;;;;;5158139;27;38582;-58
2022/01/31 05:48:45;;;;;;;9.63;1.40;;;5.60;99.40;;;;;;5158714;27;38968;-58
2022/01/31 05:51:17;;;;;;;10.73;1.52;;;5.50;99.40;;;;;;5158418;27;37534;-58
2022/01/31 05:53:45;;;;;;;9.50;1.20;;;5.60;99.60;;;;;;5158231;27;36489;-57
2022/01/31 05:56:14;;;;;;;15.40;1.52;;;5.60;99.60;;;;;;5158624;27;38450;-58
2022/01/31 05:58:42;;;;;;;13.63;1.70;;;5.60;99.70;;;;;;5159015;27;37754;-57
2022/01/31 06:01:09;;;;;;;14.73;3.75;;;5.60;99.80;;;;;;5157473;27;37385;-58
2022/01/31 06:03:37;;;;;;;9.68;1.45;;;5.60;99.70;;;;;;5159181;27;36117;-58
2022/01/31 06:06:06;;;;;;;10.95;2.00;;;5.60;99.80;;;;;;5157270;27;37746;-58
2022/01/31 06:08:34;;;;;;;12.75;2.10;;;5.70;99.80;;;;;;5157812;27;38895;-58
2022/01/31 06:11:01;;;;;;;14.30;1.90;;;5.70;99.90;;;;;;5156451;27;38585;-58
2022/01/31 06:13:32;;;;;;;12.10;1.63;;;5.70;99.80;;;;;;5158917;27;35297;-58
2022/01/31 06:15:59;;;;;;;12.38;1.70;;;5.70;99.90;;;;;;5156108;27;39397;-57
2022/01/31 06:18:26;;;;;;;17.30;1.75;;;5.70;99.80;;;;;;5158107;27;37727;-57
2022/01/31 06:20:54;;;;;;;12.55;2.25;;;5.70;99.90;;;;;;5156856;27;36197;-58
2022/01/31 06:23:23;;;;;;;8.52;1.63;;;5.70;99.90;;;;;;5157661;27;37238;-58
2022/01/31 06:25:50;;;;;;;16.13;1.88;;;5.70;99.90;;;;;;5157903;27;37897;-58
2022/01/31 06:28:17;;;;;;;13.55;2.45;;;5.70;99.80;;;;;;5157631;27;38973;-57
2022/01/31 06:30:45;;;;;;;17.52;2.03;;;5.70;99.80;;;;;;5157813;27;35993;-57
2022/01/31 06:33:15;;;;;;;14.77;2.22;;;5.70;99.90;;;;;;5156461;27;37920;-58
2022/01/31 06:35:44;;;;;;;13.95;2.15;;;5.70;99.90;;;;;;5156854;27;37958;-57
2022/01/31 06:38:11;;;;;;;13.93;2.20;;;5.80;99.90;;;;;;5157106;27;38462;-57
2022/01/31 06:40:40;;;;;;;11.57;1.73;;;5.80;99.90;;;;;;5155630;27;35552;-57
2022/01/31 06:43:08;;;;;;;13.68;1.92;;;5.80;99.90;;;;;;5155004;27;36402;-57
2022/01/31 06:45:36;;;;;;;8.68;1.27;;;5.80;99.90;;;;;;5156666;27;37661;-57
2022/01/31 06:48:03;;;;;;;11.93;2.28;;;5.80;99.90;;;;;;5157443;27;37839;-58
2022/01/31 06:50:31;;;;;;;8.60;1.55;;;5.80;99.90;;;;;;5155361;27;37278;-58
2022/01/31 06:52:59;;;;;;;10.73;1.80;;;5.80;99.90;;;;;;5157647;27;36074;-57
2022/01/31 06:55:28;;;;;;;8.00;1.40;;;5.80;99.90;;;;;;5155795;27;37996;-57
2022/01/31 06:57:57;;;;;;;10.55;1.55;;;5.80;99.90;;;;;;5155624;27;39200;-58
2022/01/31 07:00:24;;;;;;;8.48;1.45;;;5.90;99.90;;;;;;5154370;27;36346;-58
2022/01/31 07:02:52;;;;;;;11.82;1.60;;;5.90;99.90;;;;;;5155179;27;36406;-58
2022/01/31 07:05:19;;;;;;;7.65;1.48;;;5.90;99.90;;;;;;5156083;27;38471;-59
2022/01/31 07:07:47;;;;;;;10.80;1.60;;;5.90;99.90;;;;;;5155897;27;39822;-59
2022/01/31 07:10:15;;;;;;;11.90;1.90;;;5.90;99.90;;;;;;5155892;27;37527;-59
2022/01/31 07:12:49;;;;;;;10.60;1.83;;;5.90;99.90;;;;;;5155812;27;36454;-59
2022/01/31 07:15:17;;;;;;;12.10;1.70;;;5.80;99.90;;;;;;5156827;27;36555;-58
2022/01/31 07:17:46;;;;;;;15.77;2.38;;;5.90;99.90;;;;;;5156512;27;36440;-58
2022/01/31 07:20:21;;;;;;;18.17;3.30;;;5.90;99.90;;;;;;5155325;27;35376;-58
2022/01/31 07:22:55;;;;;;;11.00;3.10;;;5.90;99.90;;;;;;5156947;27;36584;-58
2022/01/31 07:25:34;;;;;;;10.07;1.75;;;6.00;99.90;;;;;;5156676;27;37724;-58
2022/01/31 07:28:03;;;;;;;12.77;1.52;;;6.00;99.90;;;;;;5155697;27;38715;-58
2022/01/31 07:30:32;;;;;;;10.38;1.90;;;6.00;99.90;;;;;;5156488;27;37493;-58
2022/01/31 07:33:00;;;;;;;13.90;1.63;;;6.00;99.90;;;;;;5156318;27;37873;-58
2022/01/31 07:35:28;;;;;;;15.38;1.90;;;6.00;99.90;;;;;;5155366;27;40446;-59
2022/01/31 07:37:55;;;;;;;8.65;1.45;;;6.00;99.90;;;;;;5156178;27;38218;-58
2022/01/31 07:40:23;;;;;;;7.82;1.52;;;6.00;99.90;;;;;;5155195;27;36143;-60
2022/01/31 07:42:51;;;;;;;7.38;1.40;;;6.00;99.90;;;;;;5155931;27;37094;-59
2022/01/31 07:45:18;;;;;;;8.35;1.20;;;6.00;99.90;;;;;;5154274;27;37664;-59
2022/01/31 07:47:47;;;;;;;10.90;1.58;;;6.10;99.90;;;;;;5154621;27;39509;-59
2022/01/31 07:50:14;;;;;;;10.05;1.38;;;6.10;99.90;;;;;;5156357;27;36564;-58
2022/01/31 07:52:43;;;;;;;9.40;1.45;;;6.10;99.90;;;;;;5156325;27;36654;-58
2022/01/31 07:55:12;;;;;;;10.75;1.20;;;6.10;99.90;;;;;;5156232;27;38343;-58
2022/01/31 07:57:41;;;;;;;10.20;1.60;;;6.10;99.90;;;;;;5156864;27;36730;-59
2022/01/31 08:00:09;;;;;;;12.00;1.50;;;6.10;99.90;;;;;;5154654;27;37307;-59
2022/01/31 08:02:37;;;;;;;11.20;1.23;;;6.10;99.90;;;;;;5156637;27;37003;-58
2022/01/31 08:05:07;;;;;;;8.30;1.35;;;6.10;99.90;;;;;;5155992;27;37847;-58
2022/01/31 08:07:34;;;;;;;9.30;1.95;;;6.20;99.90;;;;;;5155944;27;37879;-58
2022/01/31 08:10:02;;;;;;;8.38;1.30;;;6.20;99.90;;;;;;5155484;27;36153;-58
2022/01/31 08:12:31;;;;;;;11.02;1.65;;;6.30;99.90;;;;;;5155335;27;35216;-58
2022/01/31 08:15:03;;;;;;;9.95;1.65;;;6.40;99.90;;;;;;5154202;27;39256;-58
2022/01/31 08:17:31;;;;;;;9.20;1.65;;;6.50;99.90;;;;;;5154329;27;37841;-59
2022/01/31 08:19:58;;;;;;;10.07;2.03;;;6.50;99.90;;;;;;5153138;27;38570;-58
2022/01/31 08:22:27;;;;;;;9.30;1.80;;;6.60;99.90;;;;;;5155491;27;37223;-59
2022/01/31 08:24:54;;;;;;;9.13;1.83;;;6.50;99.90;;;;;;5154564;27;37571;-58
2022/01/31 08:27:22;;;;;;;8.13;1.65;;;6.60;99.90;;;;;;5155212;27;38766;-59
2022/01/31 08:29:55;;;;;;;7.63;1.25;;;6.50;99.80;;;;;;5156315;27;36232;-59
2022/01/31 08:32:34;;;;;;;8.05;1.80;;;6.50;99.80;;;;;;5155241;27;37689;-59
2022/01/31 08:37:47;;;;;;;9.82;1.70;;;6.60;99.70;;;;;;5156556;27;38433;-59
2022/01/31 08:40:17;;;;;;;9.23;1.98;;;6.60;99.70;;;;;;5156169;27;37235;-59
2022/01/31 08:42:45;;;;;;;10.00;1.60;;;6.70;99.70;;;;;;5156078;27;35321;-59
2022/01/31 08:45:12;;;;;;;12.23;1.95;;;6.70;99.70;;;;;;5158458;27;37449;-59
2022/01/31 08:47:41;;;;;;;9.23;1.65;;;6.80;99.70;;;;;;5160123;27;37622;-59
2022/01/31 08:50:10;;;;;;;11.32;2.03;;;6.90;99.70;;;;;;5158954;27;37686;-59
2022/01/31 08:52:38;;;;;;;9.27;1.88;;;6.90;99.60;;;;;;5158634;27;36251;-59
2022/01/31 08:55:11;;;;;;;13.07;2.08;;;6.90;99.50;;;;;;5156935;27;37472;-59
2022/01/31 08:57:39;;;;;;;10.95;2.25;;;7.00;99.50;;;;;;5158475;27;37966;-59
2022/01/31 09:00:12;;;;;;;14.05;2.10;;;7.10;99.70;;;;;;5156294;27;37521;-59
2022/01/31 09:02:49;;;;;;;11.70;1.85;;;7.30;99.30;;;;;;5157646;27;37820;-59
2022/01/31 09:05:16;;;;;;;9.73;2.10;;;7.50;99.40;;;;;;5155052;27;36873;-59
2022/01/31 09:07:43;;;;;;;11.68;1.50;;;7.60;98.80;;;;;;5157874;27;37721;-59
2022/01/31 09:10:12;;;;;;;10.95;1.30;;;7.70;98.50;;;;;;5159277;27;37976;-59
2022/01/31 09:12:39;;;;;;;14.80;1.70;;;7.60;98.30;;;;;;5158918;27;36452;-59
2022/01/31 09:15:08;;;;;;;10.18;1.40;;;7.50;98.30;;;;;;5158407;27;36169;-59
2022/01/31 09:17:35;;;;;;;8.75;1.58;;;7.40;98.30;;;;;;5159985;27;37515;-59
2022/01/31 09:20:03;;;;;;;16.20;2.50;;;7.50;98.60;;;;;;5159236;27;37353;-59
2022/01/31 09:22:30;;;;;;;19.25;2.00;;;7.70;98.40;;;;;;5158251;27;36377;-59
2022/01/31 09:24:57;;;;;;;13.23;1.33;;;7.90;97.90;;;;;;5157942;27;38823;-59
2022/01/31 09:27:27;;;;;;;11.35;2.50;;;7.80;97.70;;;;;;5158232;27;39166;-59
2022/01/31 09:29:55;;;;;;;13.95;2.55;;;7.70;97.70;;;;;;5158709;27;37094;-59
2022/01/31 09:32:24;;;;;;;14.57;2.10;;;7.60;97.60;;;;;;5157066;27;35816;-59
2022/01/31 09:34:53;;;;;;;13.80;1.90;;;7.60;97.80;;;;;;5157402;27;38815;-59
2022/01/31 09:37:21;;;;;;;8.50;1.70;;;7.70;97.90;;;;;;5157914;27;40173;-59
2022/01/31 09:39:48;;;;;;;12.05;1.65;;;8.00;98.10;;;;;;5156257;27;37943;-59
2022/01/31 09:42:25;;;;;;;10.90;1.75;;;8.60;97.40;;;;;;5158182;27;36600;-59
2022/01/31 09:45:08;;;;;;;8.13;1.40;;;9.30;96.30;;;;;;5157245;27;37402;-59
2022/01/31 09:50:17;;;;;;;11.68;1.75;;;10.00;94.50;;;;;;5156061;27;38870;-59
2022/01/31 09:52:44;;;;;;;10.00;1.60;;;10.50;93.70;;;;;;5157763;27;36932;-59
2022/01/31 09:55:12;;;;;;;13.20;2.15;;;11.00;92.40;;;;;;5156599;27;39890;-57
2022/01/31 09:57:39;;;;;;;10.25;1.67;;;11.40;91.20;;;;;;5159293;27;37718;-57
2022/01/31 10:00:09;;;;;;;13.68;1.95;;;11.80;90.50;;;;;;5156667;27;37681;-57
2022/01/31 10:02:37;;;;;;;8.93;2.13;;;12.00;88.90;;;;;;5158961;27;37207;-57
2022/01/31 10:05:05;;;;;;;13.18;2.35;;;12.10;88.20;;;;;;5157872;27;37405;-57
2022/01/31 10:07:47;;;;;;;12.30;2.95;;;12.20;87.60;;;;;;5157732;27;36403;-57
2022/01/31 10:10:23;;;;;;;16.90;2.40;;;12.30;85.80;;;;;;5158817;27;37536;-59
2022/01/31 10:18:21;;;;;;;12.57;2.17;;;11.30;89.00;;;;;;5157842;27;41151;-59
2022/01/31 10:20:48;;;;;;;11.07;1.77;;;11.10;90.00;;;;;;5158078;27;37458;-59
2022/01/31 10:23:16;;;;;;;12.20;1.95;;;11.20;90.10;;;;;;5159906;27;36277;-59
2022/01/31 10:25:44;;;;;;;10.98;1.63;;;11.20;90.00;;;;;;5158559;27;36413;-57
2022/01/31 10:28:13;;;;;;;17.48;2.90;;;11.30;89.80;;;;;;5158182;27;36399;-59
2022/01/31 10:30:43;;;;;;;15.15;2.72;;;11.40;90.00;;;;;;5159007;27;36255;-59
2022/01/31 10:33:12;;;;;;;15.30;2.38;;;11.50;89.20;;;;;;5159869;27;37557;-59
2022/01/31 10:35:41;;;;;;;6.53;1.60;;;11.60;88.50;;;;;;5159064;27;36955;-59
2022/01/31 10:38:12;;;;;;;9.95;2.40;;;11.60;87.20;;;;;;5159891;27;37481;-59
2022/01/31 10:44:05;;;;;;;9.43;2.38;;;11.90;83.50;;;;;;5159223;27;38102;-57
2022/01/31 10:52:18;;;;;;;12.90;2.35;;;12.50;79.80;;;;;;5158882;27;38654;-59
2022/01/31 10:54:50;;;;;;;13.45;2.42;;;12.40;79.30;;;;;;5157404;27;36435;-57
2022/01/31 10:57:21;;;;;;;11.95;2.17;;;12.40;79.60;;;;;;5157092;27;37364;-59
2022/01/31 10:59:51;;;;;;;17.92;3.17;;;12.50;79.20;;;;;;5156336;27;37204;-57
2022/01/31 11:02:21;;;;;;;12.02;2.20;;;12.60;78.20;;;;;;5157463;27;38317;-57
2022/01/31 11:04:50;;;;;;;11.10;2.03;;;12.50;78.10;;;;;;5157444;27;35370;-57
2022/01/31 11:07:19;;;;;;;15.85;2.28;;;12.30;78.10;;;;;;5157219;27;37381;-59
2022/01/31 11:09:49;;;;;;;15.68;2.53;;;11.90;79.20;;;;;;5157444;27;36756;-59
2022/01/31 11:12:19;;;;;;;11.43;1.83;;;11.70;81.00;;;;;;5156945;27;37435;-58
2022/01/31 11:14:47;;;;;;;17.23;2.80;;;11.50;81.90;;;;;;5153639;27;37407;-58
2022/01/31 11:17:17;;;;;;;15.65;3.22;;;11.30;82.80;;;;;;5154651;27;37659;-58
2022/01/31 11:19:54;;;;;;;10.13;2.30;;;11.10;83.70;;;;;;5154458;27;37972;-58
2022/01/31 11:22:28;;;;;;;14.82;2.30;;;10.80;84.90;;;;;;5154454;27;37432;-57
2022/01/31 11:25:03;;;;;;;18.05;2.45;;;10.50;86.00;;;;;;5151958;27;37327;-57
2022/01/31 11:27:31;;;;;;;12.95;2.65;;;10.30;87.00;;;;;;5151476;27;36034;-57
2022/01/31 11:30:00;;;;;;;21.08;3.22;;;10.20;87.80;;;;;;5152991;27;38950;-57
2022/01/31 11:32:28;;;;;;;21.70;3.45;;;10.20;88.60;;;;;;5154855;27;37237;-57
2022/01/31 11:34:57;;;;;;;24.05;3.42;;;10.30;89.40;;;;;;5152570;27;36264;-58
2022/01/31 11:37:26;;;;;;;16.50;2.75;;;10.40;89.40;;;;;;5153920;27;38619;-57
2022/01/31 11:39:57;;;;;;;22.70;4.07;;;10.50;89.30;;;;;;5153779;27;37851;-57
2022/01/31 11:42:26;;;;;;;17.25;3.55;;;10.70;88.80;;;;;;5152883;27;38222;-58
2022/01/31 11:45:01;;;;;;;17.67;3.13;;;10.70;88.50;;;;;;5152463;27;37852;-57
2022/01/31 11:47:32;;;;;;;16.70;3.30;;;10.80;88.10;;;;;;5152413;27;37592;-58
2022/01/31 11:50:02;;;;;;;15.77;2.92;;;10.60;87.30;;;;;;5151228;27;38134;-58
2022/01/31 11:52:32;;;;;;;16.63;2.70;;;10.40;87.90;;;;;;5153931;27;37588;-58
2022/01/31 11:55:03;;;;;;;18.40;2.92;;;10.30;88.70;;;;;;5153323;27;37742;-57
2022/01/31 11:57:32;;;;;;;19.45;3.35;;;10.30;89.30;;;;;;5154429;27;38605;-57
2022/01/31 12:00:03;;;;;;;18.98;2.75;;;10.30;89.50;;;;;;5153552;27;37822;-57
2022/01/31 12:02:32;;;;;;;18.45;2.80;;;10.30;89.40;;;;;;5155398;27;37796;-57
2022/01/31 12:05:07;;;;;;;16.05;2.63;;;10.50;88.90;;;;;;5152901;27;37490;-57
2022/01/31 12:07:42;;;;;;;18.27;3.20;;;10.60;88.20;;;;;;5154299;27;37430;-59
2022/01/31 12:10:22;;;;;;;19.45;3.42;;;10.70;88.40;;;;;;5153516;27;37784;-58
2022/01/31 12:12:54;;;;;;;17.00;3.15;;;10.70;88.90;;;;;;5151317;27;37441;-58
2022/01/31 12:15:44;;;;;;;19.20;3.17;;;10.70;88.70;;;;;;5155893;27;38206;-58
2022/01/31 12:24:05;;;;;;;14.52;2.70;;;10.20;90.10;;;;;;5158592;27;38532;-58
2022/01/31 12:26:53;;;;;;;17.65;2.83;;;10.10;90.30;;;;;;5158991;27;36300;-57
2022/01/31 12:29:23;;;;;;;17.38;3.45;;;10.00;90.50;;;;;;5157903;27;37347;-58
2022/01/31 12:31:53;;;;;;;17.92;2.80;;;10.00;90.70;;;;;;5160856;27;37618;-58
2022/01/31 12:34:39;;;;;;;18.48;3.10;;;9.90;90.80;;;;;;5158926;27;37357;-58
2022/01/31 12:37:26;;;;;;;19.85;2.95;;;9.90;91.20;;;;;;5161434;27;35328;-58
2022/01/31 12:40:04;;;;;;;16.33;2.63;;;9.80;91.30;;;;;;5158857;27;37804;-58
2022/01/31 12:45:32;;;;;;;24.97;3.53;;;9.70;91.80;;;;;;5156281;27;37580;-58
2022/01/31 12:48:22;;;;;;;20.08;2.97;;;9.70;91.90;;;;;;5160446;27;38262;-57
2022/01/31 12:51:04;;;;;;;15.05;2.60;;;9.60;92.10;;;;;;5153383;27;37220;-58
2022/01/31 12:53:58;;;;;;;12.63;2.40;;;9.60;92.00;;;;;;5160959;27;39107;-58
2022/01/31 12:56:31;;;;;;;21.15;3.85;;;9.60;92.00;;;;;;5141318;27;37481;-57
2022/01/31 12:59:10;;;;;;;18.30;3.45;;;9.50;92.00;;;;;;5159194;27;36399;-57
2022/01/31 13:01:40;;;;;;;16.42;2.50;;;9.40;92.20;;;;;;5159525;27;38657;-57
2022/01/31 13:04:09;;;;;;;17.88;3.38;;;9.40;92.30;;;;;;5161040;27;36314;-58
2022/01/31 13:06:40;;;;;;;16.17;3.00;;;9.30;92.60;;;;;;5160342;27;37436;-58
2022/01/31 13:09:15;;;;;;;24.08;3.13;;;9.30;92.80;;;;;;5157569;27;37260;-58
2022/01/31 13:11:45;;;;;;;17.20;3.10;;;9.30;92.90;;;;;;5161252;27;37606;-58
2022/01/31 13:14:15;;;;;;;20.80;3.35;;;9.20;92.80;;;;;;5161077;27;37829;-58
2022/01/31 13:16:47;;;;;;;22.60;4.28;;;9.20;92.90;;;;;;5159940;27;37455;-58
2022/01/31 13:19:20;;;;;;;22.27;3.10;;;9.20;93.00;;;;;;5162057;27;36491;-58
2022/01/31 13:21:49;;;;;;;;;;;9.20;93.20;;;;;;5161856;27;38151;-58
2022/01/31 13:24:19;;;;;;;19.95;4.53;;;9.20;93.50;;;;;;5159097;27;38513;-58